createdAt,value
2023-05-14T08:01:11.443Z,31.55
2023-05-14T08:02:11.556Z,31.52
2023-05-14T08:03:11.547Z,31.53
2023-05-14T08:04:11.560Z,31.55
2023-05-14T08:05:11.586Z,31.54
2023-05-14T08:06:11.585Z,31.50
2023-05-14T08:07:11.610Z,31.55
2023-05-14T08:08:11.613Z,31.58
2023-05-14T08:09:11.695Z,31.46
2023-05-14T08:10:11.746Z,31.48
2023-05-14T08:11:11.741Z,31.47
2023-05-14T08:12:11.769Z,31.48
2023-05-14T08:13:11.787Z,31.44
2023-05-14T08:14:11.826Z,31.41
2023-05-14T08:15:11.857Z,31.43
2023-05-14T08:16:11.854Z,31.40
2023-05-14T08:17:11.860Z,31.34
2023-05-14T08:18:11.999Z,31.40
2023-05-14T08:19:11.989Z,31.33
2023-05-14T08:20:11.881Z,31.33
2023-05-14T08:21:13.533Z,31.29
2023-05-14T08:22:11.914Z,31.36
2023-05-14T08:23:11.928Z,31.35
2023-05-14T08:24:11.995Z,31.31
2023-05-14T08:25:11.995Z,31.29
2023-05-14T08:26:11.971Z,31.28
2023-05-14T08:27:11.979Z,31.25
2023-05-14T08:28:11.994Z,31.28
2023-05-14T08:29:13.985Z,31.23
2023-05-14T08:30:12.014Z,31.26
2023-05-14T08:31:12.043Z,31.20
2023-05-14T08:32:22.752Z,31.24
2023-05-14T08:33:13.047Z,31.18
2023-05-14T08:34:11.971Z,31.15
2023-05-14T08:35:11.990Z,31.16
2023-05-14T08:36:11.970Z,31.18
2023-05-14T08:37:11.957Z,31.22
2023-05-14T08:38:11.938Z,31.13
2023-05-14T08:39:11.936Z,31.19
2023-05-14T08:40:11.932Z,31.15
2023-05-14T08:41:11.918Z,31.18
2023-05-14T08:42:11.934Z,31.12
2023-05-14T08:43:11.953Z,31.13
2023-05-14T08:44:11.920Z,31.11
2023-05-14T08:45:11.885Z,31.09
2023-05-14T08:46:11.912Z,31.09
2023-05-14T08:47:11.908Z,31.11
2023-05-14T08:48:11.913Z,31.11
2023-05-14T08:49:12.294Z,31.07
2023-05-14T08:50:11.877Z,31.09
2023-05-14T08:51:11.868Z,31.07
2023-05-14T08:52:11.841Z,31.08
2023-05-14T08:53:11.871Z,31.07
2023-05-14T08:54:11.852Z,31.05
2023-05-14T08:55:11.822Z,31.07
2023-05-14T08:56:11.816Z,31.04
2023-05-14T08:57:11.807Z,31.05
2023-05-14T08:58:11.806Z,31.07
2023-05-14T08:59:11.807Z,31.06
2023-05-14T09:00:11.856Z,31.05
2023-05-14T09:01:11.802Z,31.04
2023-05-14T09:02:11.806Z,31.12
2023-05-14T09:03:11.825Z,31.09
2023-05-14T09:04:12.033Z,31.07
2023-05-14T09:05:11.942Z,31.08
2023-05-14T09:06:11.896Z,31.04
2023-05-14T09:07:11.915Z,31.05
2023-05-14T09:08:11.920Z,31.01
2023-05-14T09:09:11.967Z,31.03
2023-05-14T09:10:12.002Z,31.07
2023-05-14T09:11:12.024Z,31.07
2023-05-14T09:12:12.002Z,31.03
2023-05-14T09:13:12.070Z,31.09
2023-05-14T09:14:12.043Z,31.05
2023-05-14T09:15:12.066Z,31.02
2023-05-14T09:16:12.178Z,31.07
2023-05-14T09:17:12.128Z,31.04
2023-05-14T09:18:12.183Z,31.03
2023-05-14T09:19:12.229Z,31.05
2023-05-14T09:20:12.191Z,31.04
2023-05-14T09:21:12.228Z,31.13
2023-05-14T09:22:12.255Z,31.08
2023-05-14T09:23:12.234Z,31.08
2023-05-14T09:24:12.297Z,31.10
2023-05-14T09:25:12.451Z,31.10
2023-05-14T09:26:12.372Z,31.06
2023-05-14T09:27:12.400Z,31.05
2023-05-14T09:28:12.445Z,31.10
2023-05-14T09:29:12.473Z,31.05
2023-05-14T09:30:12.532Z,31.09
2023-05-14T09:31:12.527Z,31.05
2023-05-14T09:32:12.522Z,31.13
2023-05-14T09:33:12.556Z,31.06
2023-05-14T09:34:12.626Z,31.12
2023-05-14T09:35:12.645Z,31.10
2023-05-14T09:36:12.686Z,31.12
2023-05-14T09:37:12.723Z,31.06
2023-05-14T09:38:12.778Z,31.10
2023-05-14T09:39:12.769Z,31.07
2023-05-14T09:40:12.798Z,31.09
2023-05-14T09:41:12.874Z,31.06
2023-05-14T09:42:12.919Z,31.12
2023-05-14T09:43:12.964Z,31.02
2023-05-14T09:44:12.995Z,31.03
2023-05-14T09:45:13.068Z,31.09
2023-05-14T09:46:13.068Z,31.06
2023-05-14T09:47:13.123Z,31.09
2023-05-14T09:48:13.254Z,31.09
2023-05-14T09:49:13.221Z,31.03
2023-05-14T09:50:13.312Z,31.03
2023-05-14T09:51:13.233Z,31.06
2023-05-14T09:52:13.285Z,31.02
2023-05-14T09:53:13.320Z,31.10
2023-05-14T09:54:13.355Z,31.07
2023-05-14T09:55:13.404Z,31.06
2023-05-14T09:56:13.482Z,31.01
2023-05-14T09:57:13.500Z,31.03
2023-05-14T09:58:13.548Z,31.05
2023-05-14T09:59:13.578Z,31.01
2023-05-14T10:00:13.648Z,31.02
2023-05-14T10:01:13.696Z,31.04
2023-05-14T10:02:13.719Z,31.02
2023-05-14T10:03:13.842Z,31.06
2023-05-14T10:04:13.904Z,31.03
2023-05-14T10:05:13.904Z,31.04
2023-05-14T10:06:13.928Z,31.06
2023-05-14T10:07:13.943Z,31.09
2023-05-14T10:08:14.031Z,31.07
2023-05-14T10:09:14.212Z,31.06
2023-05-14T10:10:14.141Z,31.09
2023-05-14T10:11:14.174Z,31.08
2023-05-14T10:12:14.169Z,31.12
2023-05-14T10:13:14.248Z,31.13
2023-05-14T10:14:14.248Z,31.09
2023-05-14T10:15:14.359Z,31.09
2023-05-14T10:16:14.352Z,31.11
2023-05-14T10:17:14.536Z,31.15
2023-05-14T10:18:14.499Z,31.06
2023-05-14T10:19:14.536Z,31.12
2023-05-14T10:20:14.525Z,31.09
2023-05-14T10:21:14.615Z,31.12
2023-05-14T10:22:14.676Z,31.09
2023-05-14T10:23:14.720Z,31.13
2023-05-14T10:24:14.752Z,31.11
2023-05-14T10:25:14.803Z,31.11
2023-05-14T10:26:14.843Z,31.09
2023-05-14T10:27:14.892Z,31.16
2023-05-14T10:28:14.965Z,31.13
2023-05-14T10:29:14.987Z,31.09
2023-05-14T10:30:15.076Z,31.05
2023-05-14T10:31:15.130Z,31.12
2023-05-14T10:32:15.152Z,31.09
2023-05-14T10:33:15.309Z,31.09
2023-05-14T10:34:15.304Z,31.11
2023-05-14T10:35:15.317Z,31.08
2023-05-14T10:36:15.452Z,31.07
2023-05-14T10:37:15.460Z,31.06
2023-05-14T10:38:15.479Z,31.06
2023-05-14T10:39:15.568Z,31.13
2023-05-14T10:40:15.599Z,31.12
2023-05-14T10:41:15.634Z,31.13
2023-05-14T10:42:15.694Z,31.12
2023-05-14T10:43:15.718Z,31.12
2023-05-14T10:44:15.809Z,31.11
2023-05-14T10:45:15.844Z,31.11
2023-05-14T10:46:15.913Z,31.15
2023-05-14T10:47:15.985Z,31.13
2023-05-14T10:48:16.152Z,31.12
2023-05-14T10:49:20.676Z,31.13
2023-05-14T10:50:17.075Z,31.15
2023-05-14T10:51:16.138Z,31.09
2023-05-14T10:52:16.063Z,31.16
2023-05-14T10:53:16.080Z,31.09
2023-05-14T10:54:16.090Z,31.11
2023-05-14T10:55:16.067Z,31.15
2023-05-14T10:56:16.017Z,31.12
2023-05-14T10:57:16.059Z,31.12
2023-05-14T10:58:16.061Z,31.12
2023-05-14T10:59:16.122Z,31.13
2023-05-14T11:00:16.200Z,31.09
2023-05-14T11:01:16.215Z,31.16
2023-05-14T11:02:16.396Z,31.16
2023-05-14T11:03:16.377Z,31.16
2023-05-14T11:04:16.406Z,31.12
2023-05-14T11:05:16.428Z,31.16
2023-05-14T11:06:16.537Z,31.15
2023-05-14T11:07:16.511Z,31.19
2023-05-14T11:08:16.585Z,31.20
2023-05-14T11:09:16.630Z,31.13
2023-05-14T11:10:16.661Z,31.13
2023-05-14T11:11:16.715Z,31.15
2023-05-14T11:12:16.824Z,31.18
2023-05-14T11:13:16.815Z,31.16
2023-05-14T11:14:16.902Z,31.19
2023-05-14T11:15:17.019Z,31.13
2023-05-14T11:16:23.160Z,31.15
2023-05-14T11:17:18.020Z,31.15
2023-05-14T11:18:17.043Z,31.20
2023-05-14T11:19:17.084Z,31.12
2023-05-14T11:20:16.978Z,31.16
2023-05-14T11:21:17.028Z,31.15
2023-05-14T11:22:16.938Z,31.13
2023-05-14T11:23:16.954Z,31.21
2023-05-14T11:24:16.951Z,31.13
2023-05-14T11:25:16.932Z,31.15
2023-05-14T11:26:17.880Z,31.13
2023-05-14T11:27:17.004Z,31.15
2023-05-14T11:28:17.046Z,31.15
2023-05-14T11:29:17.122Z,31.16
2023-05-14T11:30:17.206Z,31.15
2023-05-14T11:31:17.253Z,31.21
2023-05-14T11:32:17.251Z,31.13
2023-05-14T11:33:17.322Z,31.21
2023-05-14T11:34:17.321Z,31.19
2023-05-14T11:35:17.390Z,31.11
2023-05-14T11:36:17.470Z,31.14
2023-05-14T11:37:17.512Z,31.15
2023-05-14T11:38:17.574Z,31.11
2023-05-14T11:39:17.647Z,31.12
2023-05-14T11:40:17.733Z,31.15
2023-05-14T11:41:17.729Z,31.15
2023-05-14T11:42:17.820Z,31.15
2023-05-14T11:43:17.881Z,31.18
2023-05-14T11:44:17.922Z,31.13
2023-05-14T11:45:17.936Z,31.12
2023-05-14T11:46:18.157Z,31.11
2023-05-14T11:47:18.082Z,31.15
2023-05-14T11:48:18.133Z,31.07
2023-05-14T11:49:18.196Z,31.13
2023-05-14T11:50:18.215Z,31.14
2023-05-14T11:51:18.294Z,31.15
2023-05-14T11:52:18.332Z,31.17
2023-05-14T11:53:18.418Z,31.13
2023-05-14T11:54:18.459Z,31.15
2023-05-14T11:55:18.520Z,31.17
2023-05-14T11:56:18.561Z,31.13
2023-05-14T11:57:18.598Z,31.17
2023-05-14T11:58:18.648Z,31.11
2023-05-14T11:59:18.716Z,31.21
2023-05-14T12:00:18.779Z,31.18
2023-05-14T12:01:18.796Z,31.21
2023-05-14T12:02:18.919Z,31.18
2023-05-14T12:03:19.174Z,31.19
2023-05-14T12:04:19.038Z,31.22
2023-05-14T12:05:19.031Z,31.15
2023-05-14T12:06:19.066Z,31.15
2023-05-14T12:07:19.149Z,31.18
2023-05-14T12:08:19.201Z,31.18
2023-05-14T12:09:19.284Z,31.19
2023-05-14T12:10:19.361Z,31.21
2023-05-14T12:11:19.373Z,31.18
2023-05-14T12:12:19.429Z,31.18
2023-05-14T12:13:19.492Z,31.19
2023-05-14T12:14:19.552Z,31.22
2023-05-14T12:15:19.617Z,31.19
2023-05-14T12:16:19.739Z,31.23
2023-05-14T12:17:19.717Z,31.21
2023-05-14T12:18:24.636Z,31.23
2023-05-14T12:19:20.892Z,31.23
2023-05-14T12:20:19.761Z,31.18
2023-05-14T12:21:19.742Z,31.18
2023-05-14T12:22:19.760Z,31.22
2023-05-14T12:23:19.751Z,31.23
2023-05-14T12:24:19.776Z,31.21
2023-05-14T12:25:19.720Z,31.26
2023-05-14T12:26:19.712Z,31.28
2023-05-14T12:27:19.757Z,31.22
2023-05-14T12:28:19.795Z,31.23
2023-05-14T12:29:19.821Z,31.25
2023-05-14T12:30:34.260Z,31.26
2023-05-14T12:31:20.939Z,31.25
2023-05-14T12:32:19.868Z,31.22
2023-05-14T12:33:19.879Z,31.22
2023-05-14T12:34:19.892Z,31.26
2023-05-14T12:35:19.843Z,31.26
2023-05-14T12:36:22.237Z,31.25
2023-05-14T12:37:20.586Z,31.30
2023-05-14T12:38:20.154Z,31.33
2023-05-14T12:39:20.197Z,31.28
2023-05-14T12:40:20.239Z,31.25
2023-05-14T12:41:20.306Z,31.26
2023-05-14T12:42:20.333Z,31.23
2023-05-14T12:43:20.427Z,31.23
2023-05-14T12:44:20.458Z,31.23
2023-05-14T12:45:20.505Z,31.20
2023-05-14T12:46:20.605Z,31.25
2023-05-14T12:47:20.840Z,31.25
2023-05-14T12:48:20.690Z,31.22
2023-05-14T12:49:20.762Z,31.23
2023-05-14T12:50:20.800Z,31.22
2023-05-14T12:51:20.849Z,31.20
2023-05-14T12:52:36.108Z,31.26
2023-05-14T12:53:21.917Z,31.25
2023-05-14T12:54:20.905Z,31.28
2023-05-14T12:55:20.878Z,31.29
2023-05-14T12:56:20.871Z,31.19
2023-05-14T12:57:20.879Z,31.26
2023-05-14T12:58:20.874Z,31.26
2023-05-14T12:59:20.864Z,31.22
2023-05-14T13:00:20.842Z,31.22
